Time;durP1;ratioP1;P1;durP2;ratioP2;P2;SDS_P1;SDS_P2;PMS_P1;PMS_P2;Temp;Humidity;BMP_temperature;BMP_pressure;BME280_temperature;BME280_humidity;BME280_pressure;Samples;Min_cycle;Max_cycle;Signal;HPM_P1;HPM_P2
2024/01/02 00:00:54;;;;;;;11.77;3.30;;;5.70;99.90;;;;;;5073815;28;20055;-80
2024/01/02 00:03:20;;;;;;;12.90;3.70;;;5.70;99.90;;;;;;5043950;28;20041;-80
2024/01/02 00:05:46;;;;;;;11.40;3.13;;;5.70;99.90;;;;;;5053751;28;20401;-80
2024/01/02 00:08:11;;;;;;;10.38;3.38;;;5.70;99.90;;;;;;5053625;28;20041;-81
2024/01/02 00:10:37;;;;;;;8.88;2.78;;;5.80;99.90;;;;;;5037061;28;20076;-81
2024/01/02 00:13:03;;;;;;;14.25;3.30;;;5.70;99.90;;;;;;5053411;28;20049;-80
2024/01/02 00:15:28;;;;;;;11.60;3.13;;;5.70;99.90;;;;;;5053899;28;20049;-81
2024/01/02 00:17:58;;;;;;;15.65;3.92;;;5.80;99.90;;;;;;5053613;28;20049;-80
2024/01/02 00:20:26;;;;;;;10.35;3.28;;;5.80;99.90;;;;;;5066174;28;20056;-80
2024/01/02 00:22:51;;;;;;;11.43;3.28;;;5.80;99.90;;;;;;5053241;28;20051;-81
2024/01/02 00:25:17;;;;;;;15.75;3.22;;;5.80;99.90;;;;;;5053537;28;20037;-80
2024/01/02 00:27:42;;;;;;;13.05;3.53;;;5.80;99.90;;;;;;5045854;28;20047;-81
2024/01/02 00:30:09;;;;;;;12.20;2.85;;;5.80;99.90;;;;;;5073305;28;20044;-80
2024/01/02 00:32:34;;;;;;;9.30;2.72;;;5.80;99.90;;;;;;5072737;28;20544;-80
2024/01/02 00:35:01;;;;;;;7.57;2.40;;;5.80;99.90;;;;;;5073588;28;20128;-81
2024/01/02 00:37:27;;;;;;;11.00;4.25;;;5.80;99.90;;;;;;5056505;28;20127;-80
2024/01/02 00:39:52;;;;;;;9.60;2.22;;;5.90;99.90;;;;;;5073372;28;20466;-83
2024/01/02 00:42:18;;;;;;;10.23;2.90;;;5.90;99.90;;;;;;5056487;28;20094;-81
2024/01/02 00:44:44;;;;;;;8.50;2.40;;;5.90;99.90;;;;;;5073058;28;20056;-80
2024/01/02 00:47:10;;;;;;;11.65;2.50;;;5.90;99.90;;;;;;5074220;28;20123;-81
2024/01/02 00:49:35;;;;;;;11.70;2.63;;;5.90;99.90;;;;;;5069141;28;20115;-81
2024/01/02 00:52:01;;;;;;;8.73;2.35;;;5.90;99.90;;;;;;5036648;28;20084;-81
2024/01/02 00:54:27;;;;;;;9.65;2.45;;;5.90;99.90;;;;;;5036627;28;20048;-80
2024/01/02 00:56:52;;;;;;;7.60;1.73;;;5.90;99.90;;;;;;5052447;28;20048;-81
2024/01/02 00:59:18;;;;;;;9.80;2.25;;;5.90;99.90;;;;;;5057838;28;20044;-80
2024/01/02 01:01:43;;;;;;;12.77;2.35;;;5.90;99.90;;;;;;5072714;28;20789;-81
2024/01/02 01:04:09;;;;;;;9.77;1.90;;;5.90;99.90;;;;;;5059209;28;20045;-81
2024/01/02 01:06:35;;;;;;;9.90;2.40;;;6.00;99.90;;;;;;5052640;28;20059;-81
2024/01/02 01:09:00;;;;;;;13.15;2.25;;;5.90;99.90;;;;;;5036319;28;20350;-81
2024/01/02 01:11:26;;;;;;;10.40;2.05;;;5.90;99.90;;;;;;5052886;28;20382;-81
2024/01/02 01:13:52;;;;;;;11.18;1.80;;;5.90;99.90;;;;;;5036119;28;20844;-81
2024/01/02 01:16:17;;;;;;;11.90;1.83;;;5.90;99.90;;;;;;5042054;28;20040;-81
2024/01/02 01:18:43;;;;;;;12.82;1.90;;;5.90;99.90;;;;;;5060756;28;20037;-81
2024/01/02 01:21:08;;;;;;;12.23;1.90;;;5.90;99.90;;;;;;5072527;28;20057;-81
2024/01/02 01:23:34;;;;;;;8.80;1.73;;;5.90;99.90;;;;;;5068475;28;20045;-81
2024/01/02 01:26:01;;;;;;;9.80;2.03;;;5.90;99.90;;;;;;5035828;28;20124;-81
2024/01/02 01:28:29;;;;;;;8.55;1.50;;;5.90;99.90;;;;;;5054979;28;20045;-80
2024/01/02 01:30:54;;;;;;;15.73;2.30;;;6.00;99.90;;;;;;5052315;28;20045;-81
2024/01/02 01:33:20;;;;;;;11.23;1.85;;;5.90;99.90;;;;;;5057922;28;20087;-81
2024/01/02 01:35:46;;;;;;;14.65;2.13;;;5.90;99.90;;;;;;5072497;28;20377;-81
2024/01/02 01:38:11;;;;;;;10.32;1.60;;;6.00;99.90;;;;;;5039133;28;20056;-81
2024/01/02 01:40:37;;;;;;;9.25;2.38;;;6.00;99.90;;;;;;5056582;28;20045;-81
2024/01/02 01:43:13;;;;;;;11.15;2.17;;;6.00;99.90;;;;;;5051669;28;20056;-81
2024/01/02 01:45:39;;;;;;;10.73;2.13;;;6.00;99.90;;;;;;5052050;28;20102;-82
2024/01/02 01:48:07;;;;;;;11.02;2.55;;;6.00;99.90;;;;;;5052309;28;20052;-81
2024/01/02 01:50:34;;;;;;;11.30;2.42;;;6.00;99.90;;;;;;5051781;28;20057;-82
2024/01/02 01:53:01;;;;;;;11.32;2.28;;;6.30;99.90;;;;;;5052078;28;20045;-82
2024/01/02 01:55:28;;;;;;;13.52;2.90;;;6.00;99.90;;;;;;5052329;28;20417;-81
2024/01/02 01:57:55;;;;;;;14.77;3.22;;;6.20;99.90;;;;;;5051744;28;20120;-80
2024/01/02 02:00:20;;;;;;;14.95;2.70;;;6.00;99.90;;;;;;5052228;28;20052;-81
2024/01/02 02:02:47;;;;;;;9.70;2.80;;;6.00;99.90;;;;;;5034890;28;20041;-80
2024/01/02 02:05:13;;;;;;;15.68;2.80;;;6.00;99.90;;;;;;5035392;28;20052;-81
2024/01/02 02:07:41;;;;;;;14.45;2.90;;;6.10;99.90;;;;;;5052229;28;20087;-81
2024/01/02 02:10:10;;;;;;;11.93;2.78;;;6.10;99.90;;;;;;5051907;28;20179;-81
2024/01/02 02:12:36;;;;;;;13.00;3.58;;;6.00;99.90;;;;;;5051439;28;20446;-81
2024/01/02 02:15:03;;;;;;;11.55;3.72;;;6.10;99.90;;;;;;5053623;28;20049;-82
2024/01/02 02:17:29;;;;;;;13.23;4.38;;;6.10;99.90;;;;;;5051966;28;20041;-81
2024/01/02 02:19:58;;;;;;;14.27;3.85;;;6.10;99.90;;;;;;5051413;28;20405;-80
2024/01/02 02:22:33;;;;;;;9.90;4.47;;;6.60;99.90;;;;;;5051536;28;20114;-81
2024/01/02 02:24:59;;;;;;;13.60;4.65;;;6.10;99.90;;;;;;5051749;28;20053;-81
2024/01/02 02:27:26;;;;;;;12.13;4.30;;;6.10;99.90;;;;;;5052969;28;20075;-81
2024/01/02 02:29:52;;;;;;;11.65;4.50;;;6.20;99.90;;;;;;5069091;28;20055;-81
2024/01/02 02:32:20;;;;;;;14.38;4.60;;;6.40;99.90;;;;;;5073031;28;20427;-81
2024/01/02 02:34:45;;;;;;;13.27;4.60;;;6.20;99.90;;;;;;5071635;28;20041;-81
2024/01/02 02:37:11;;;;;;;13.10;5.05;;;6.20;99.90;;;;;;5071537;28;20484;-81
2024/01/02 02:39:37;;;;;;;17.80;5.97;;;6.20;99.90;;;;;;5050766;28;20049;-81
2024/01/02 02:42:03;;;;;;;17.20;5.38;;;6.20;99.90;;;;;;5051543;28;20044;-81
2024/01/02 02:44:28;;;;;;;13.35;5.97;;;6.20;99.90;;;;;;5051539;28;20175;-82
2024/01/02 02:46:54;;;;;;;17.63;5.55;;;6.20;99.90;;;;;;5034989;28;20484;-81
2024/01/02 02:49:19;;;;;;;12.48;5.72;;;6.20;99.90;;;;;;5051437;28;20087;-81
2024/01/02 02:51:45;;;;;;;14.45;5.05;;;6.20;99.90;;;;;;5053892;28;20048;-80
2024/01/02 02:54:11;;;;;;;16.77;5.78;;;6.20;99.90;;;;;;5075013;28;20052;-82
2024/01/02 02:56:37;;;;;;;13.20;5.32;;;6.20;99.90;;;;;;5075322;28;20379;-81
2024/01/02 02:59:03;;;;;;;16.02;6.03;;;6.20;99.90;;;;;;5063221;28;20056;-81
2024/01/02 03:01:28;;;;;;;14.57;6.50;;;6.20;99.90;;;;;;5063260;28;20107;-82
2024/01/02 03:03:56;;;;;;;17.02;6.05;;;6.30;99.90;;;;;;5059444;28;20042;-81
2024/01/02 03:06:21;;;;;;;13.60;5.72;;;6.30;99.90;;;;;;5066564;28;20059;-81
2024/01/02 03:08:47;;;;;;;18.75;6.13;;;6.20;99.90;;;;;;5067741;28;20044;-82
2024/01/02 03:11:13;;;;;;;13.65;5.43;;;6.20;99.90;;;;;;5058219;28;20045;-83
2024/01/02 03:13:39;;;;;;;12.90;5.10;;;6.20;99.90;;;;;;5074388;28;20036;-81
2024/01/02 03:16:09;;;;;;;15.23;6.13;;;6.30;99.90;;;;;;5074407;28;20080;-81
2024/01/02 03:18:35;;;;;;;16.67;5.05;;;6.40;99.90;;;;;;5066550;28;20075;-82
2024/01/02 03:21:00;;;;;;;18.30;5.88;;;6.30;99.90;;;;;;5054179;28;20056;-82
2024/01/02 03:23:26;;;;;;;16.02;5.40;;;6.30;99.90;;;;;;5054175;28;20109;-81
2024/01/02 03:25:52;;;;;;;14.50;6.03;;;6.30;99.90;;;;;;5054432;28;20071;-82
2024/01/02 03:28:17;;;;;;;16.63;5.35;;;6.30;99.90;;;;;;5044133;28;20065;-81
2024/01/02 03:30:43;;;;;;;14.27;5.35;;;6.30;99.90;;;;;;5056775;28;20702;-82
2024/01/02 03:33:09;;;;;;;16.13;5.28;;;6.30;99.90;;;;;;5055352;28;20038;-82
2024/01/02 03:35:35;;;;;;;14.05;4.57;;;6.30;99.90;;;;;;5054354;28;20385;-82
2024/01/02 03:38:01;;;;;;;11.93;3.80;;;6.60;99.90;;;;;;5037828;28;20127;-82
2024/01/02 03:40:26;;;;;;;9.10;4.28;;;6.30;99.90;;;;;;5054400;28;20044;-80
2024/01/02 03:42:52;;;;;;;11.52;3.50;;;6.30;99.90;;;;;;5053996;28;20436;-82
2024/01/02 03:45:18;;;;;;;10.02;3.70;;;6.30;99.90;;;;;;5063664;28;20114;-83
2024/01/02 03:47:43;;;;;;;8.60;3.63;;;6.30;99.90;;;;;;5074272;28;20384;-82
2024/01/02 03:50:09;;;;;;;11.15;4.07;;;6.30;99.90;;;;;;5065836;28;20452;-81
2024/01/02 03:52:35;;;;;;;15.52;3.85;;;6.30;99.90;;;;;;5074298;28;20384;-82
2024/01/02 03:55:00;;;;;;;15.40;4.50;;;6.30;99.90;;;;;;5073658;28;20041;-82
2024/01/02 03:57:27;;;;;;;11.27;4.70;;;6.40;99.90;;;;;;5073293;28;20508;-81
2024/01/02 03:59:53;;;;;;;12.93;4.75;;;6.30;99.90;;;;;;5064643;28;20052;-82
2024/01/02 04:02:19;;;;;;;9.15;4.65;;;6.40;99.90;;;;;;5053580;28;20049;-81
2024/01/02 04:04:45;;;;;;;12.40;4.35;;;6.30;99.90;;;;;;5053223;28;20052;-83
2024/01/02 04:07:10;;;;;;;14.32;4.88;;;6.30;99.90;;;;;;5054281;28;20057;-83
2024/01/02 04:09:36;;;;;;;16.58;5.40;;;6.60;99.90;;;;;;5071308;28;20044;-82
2024/01/02 04:12:02;;;;;;;14.30;4.95;;;6.30;99.90;;;;;;5053063;28;20057;-82
2024/01/02 04:14:28;;;;;;;15.70;5.18;;;6.30;99.90;;;;;;5037030;28;20049;-81
2024/01/02 04:16:53;;;;;;;14.07;4.60;;;6.30;99.90;;;;;;5053679;28;20052;-81
2024/01/02 04:19:21;;;;;;;12.63;5.03;;;6.60;99.90;;;;;;5052844;28;20405;-82
2024/01/02 04:21:47;;;;;;;12.38;4.00;;;6.30;99.90;;;;;;5053453;28;20063;-81
2024/01/02 04:24:14;;;;;;;10.65;4.70;;;6.30;99.90;;;;;;5053053;28;20053;-82
2024/01/02 04:26:40;;;;;;;13.15;3.85;;;6.30;99.90;;;;;;5052909;28;20124;-82
2024/01/02 04:29:05;;;;;;;9.18;3.95;;;6.30;99.90;;;;;;5069297;28;20483;-81
2024/01/02 04:31:31;;;;;;;10.15;4.05;;;6.30;99.90;;;;;;5073160;28;20384;-82
2024/01/02 04:33:57;;;;;;;13.07;4.00;;;6.30;99.90;;;;;;5058072;28;20122;-81
2024/01/02 04:36:25;;;;;;;9.60;3.40;;;6.30;99.90;;;;;;5059050;28;20048;-82
2024/01/02 04:38:52;;;;;;;12.05;3.85;;;6.40;99.90;;;;;;5073219;28;20084;-82
2024/01/02 04:41:18;;;;;;;9.18;3.28;;;6.30;99.90;;;;;;5074208;28;20124;-82
2024/01/02 04:43:44;;;;;;;13.02;3.72;;;6.30;99.90;;;;;;5071895;28;20041;-81
2024/01/02 04:46:10;;;;;;;9.38;3.70;;;6.30;99.90;;;;;;5072665;28;20507;-82
2024/01/02 04:48:36;;;;;;;8.25;3.72;;;6.40;99.90;;;;;;5066864;28;20087;-82
2024/01/02 04:51:02;;;;;;;6.78;3.20;;;6.40;99.90;;;;;;5055174;28;20468;-82
2024/01/02 04:53:28;;;;;;;10.40;3.90;;;6.30;99.90;;;;;;5052548;28;20520;-82
2024/01/02 04:55:54;;;;;;;8.45;3.92;;;6.30;99.90;;;;;;5049631;28;21638;-82
2024/01/02 04:58:21;;;;;;;9.20;3.67;;;6.30;99.90;;;;;;5073947;28;20053;-83
2024/01/02 05:00:48;;;;;;;10.85;3.70;;;6.60;99.90;;;;;;5056438;28;20155;-83
2024/01/02 05:03:14;;;;;;;9.90;3.03;;;6.50;99.90;;;;;;5070057;28;20589;-82
2024/01/02 05:05:40;;;;;;;12.13;3.78;;;6.30;99.90;;;;;;5073063;28;20044;-82
2024/01/02 05:08:05;;;;;;;6.78;3.13;;;6.30;99.90;;;;;;5053676;28;20041;-82
2024/01/02 05:10:31;;;;;;;8.18;3.10;;;6.30;99.90;;;;;;5052194;28;20404;-83
2024/01/02 05:12:57;;;;;;;8.63;3.05;;;6.40;99.90;;;;;;5052195;28;20045;-81
2024/01/02 05:15:23;;;;;;;10.00;3.13;;;6.40;99.90;;;;;;5035487;28;20045;-82
2024/01/02 05:17:49;;;;;;;7.40;3.00;;;6.40;99.90;;;;;;5051632;28;20049;-82
2024/01/02 05:20:15;;;;;;;11.07;3.08;;;6.30;99.90;;;;;;5051869;28;20065;-83
2024/01/02 05:22:40;;;;;;;7.35;2.90;;;6.40;99.90;;;;;;5036501;28;20047;-83
2024/01/02 05:25:07;;;;;;;9.90;2.92;;;6.30;99.90;;;;;;5052105;28;20041;-82
2024/01/02 05:27:33;;;;;;;8.40;3.00;;;5.90;99.90;;;;;;5069172;28;20565;-82
2024/01/02 05:29:59;;;;;;;9.43;2.33;;;6.40;99.90;;;;;;5072341;28;20040;-82
2024/01/02 05:32:24;;;;;;;7.72;3.22;;;6.70;99.90;;;;;;5071427;28;20135;-83
2024/01/02 05:34:51;;;;;;;8.98;2.60;;;6.40;99.90;;;;;;5055573;28;20037;-83
2024/01/02 05:37:18;;;;;;;6.68;2.40;;;6.40;99.90;;;;;;5052304;28;20049;-82
2024/01/02 05:39:43;;;;;;;10.43;2.80;;;6.40;99.90;;;;;;5051923;28;20084;-82
2024/01/02 05:42:09;;;;;;;5.13;2.20;;;6.60;99.90;;;;;;5051605;28;20059;-83
2024/01/02 05:44:35;;;;;;;4.93;2.20;;;6.30;99.90;;;;;;5041779;28;20047;-81
2024/01/02 05:47:00;;;;;;;7.60;2.28;;;6.40;99.90;;;;;;5071680;28;20041;-82
2024/01/02 05:49:26;;;;;;;6.18;2.05;;;6.40;99.90;;;;;;5070785;28;20059;-81
2024/01/02 05:51:52;;;;;;;7.38;1.77;;;6.40;99.90;;;;;;5034926;28;20073;-83
2024/01/02 05:54:17;;;;;;;7.63;2.80;;;6.30;99.90;;;;;;5063938;28;20102;-81
2024/01/02 05:56:46;;;;;;;5.78;2.03;;;6.40;99.90;;;;;;5057994;28;20072;-80
2024/01/02 05:59:12;;;;;;;5.20;1.52;;;6.40;99.90;;;;;;5071551;28;20098;-82
2024/01/02 06:01:37;;;;;;;4.03;1.77;;;6.40;99.90;;;;;;5069254;28;20040;-82
2024/01/02 06:04:03;;;;;;;4.30;1.63;;;6.60;99.90;;;;;;5070832;28;20040;-82
2024/01/02 06:06:29;;;;;;;8.25;1.90;;;6.40;99.90;;;;;;5055130;28;20067;-83
2024/01/02 06:08:55;;;;;;;9.73;1.90;;;6.40;99.90;;;;;;5071372;28;20048;-81
2024/01/02 06:11:20;;;;;;;5.00;1.90;;;6.40;99.90;;;;;;5071557;28;20399;-83
2024/01/02 06:13:46;;;;;;;10.30;2.53;;;6.40;99.90;;;;;;5044714;28;20127;-81
2024/01/02 06:16:12;;;;;;;7.22;1.92;;;6.40;99.90;;;;;;5051568;28;20045;-82
2024/01/02 06:18:38;;;;;;;3.10;1.50;;;6.40;99.90;;;;;;5051980;28;20535;-81
2024/01/02 06:21:04;;;;;;;3.58;1.40;;;6.50;99.90;;;;;;5050772;28;20565;-81
2024/01/02 06:23:34;;;;;;;4.75;1.42;;;6.40;99.90;;;;;;5067353;28;20044;-82
2024/01/02 06:26:00;;;;;;;3.90;1.50;;;6.40;99.90;;;;;;5052513;28;20377;-83
2024/01/02 06:28:25;;;;;;;3.83;1.20;;;6.40;99.90;;;;;;5060096;28;20062;-80
2024/01/02 06:30:51;;;;;;;6.22;1.60;;;6.50;99.90;;;;;;5075158;28;20480;-83
2024/01/02 06:33:17;;;;;;;5.97;1.80;;;6.40;99.90;;;;;;5075560;28;20568;-82
2024/01/02 06:35:43;;;;;;;3.70;1.50;;;6.40;99.90;;;;;;5075688;28;20088;-82
2024/01/02 06:38:09;;;;;;;3.35;1.63;;;6.40;99.90;;;;;;5074175;28;20097;-81
2024/01/02 06:40:35;;;;;;;3.35;1.40;;;6.40;99.90;;;;;;5057128;28;20486;-82
2024/01/02 06:43:01;;;;;;;3.90;1.42;;;6.40;99.90;;;;;;5061313;28;20378;-82
2024/01/02 06:45:27;;;;;;;7.20;1.70;;;6.40;99.90;;;;;;5058007;28;20114;-83
2024/01/02 06:47:52;;;;;;;4.38;1.38;;;6.40;99.90;;;;;;5063121;28;20033;-82
2024/01/02 06:50:18;;;;;;;2.75;1.05;;;6.40;99.90;;;;;;5050475;28;20045;-82
2024/01/02 06:52:44;;;;;;;2.60;1.20;;;6.80;99.90;;;;;;5064379;28;20044;-82
2024/01/02 06:55:10;;;;;;;3.35;1.17;;;6.40;99.90;;;;;;5063910;28;20052;-82
2024/01/02 06:57:36;;;;;;;2.28;0.93;;;6.40;99.90;;;;;;5070576;28;20048;-82
2024/01/02 07:00:01;;;;;;;2.60;1.00;;;6.50;99.90;;;;;;5074646;28;20098;-82
2024/01/02 07:02:29;;;;;;;2.60;1.00;;;6.50;99.90;;;;;;5060113;28;20646;-82
2024/01/02 07:04:55;;;;;;;2.55;0.90;;;6.50;99.90;;;;;;5055621;28;20067;-82
2024/01/02 07:07:21;;;;;;;2.08;0.88;;;6.60;99.90;;;;;;5059586;28;20533;-83
2024/01/02 07:09:46;;;;;;;2.35;1.10;;;6.50;99.90;;;;;;5061167;28;20825;-81
2024/01/02 07:12:12;;;;;;;2.55;1.02;;;6.50;99.90;;;;;;5059155;28;20049;-82
2024/01/02 07:14:38;;;;;;;3.08;1.10;;;6.50;99.90;;;;;;5039198;28;20423;-82
2024/01/02 07:17:04;;;;;;;3.92;0.98;;;6.50;99.90;;;;;;5057883;28;20465;-81
2024/01/02 07:19:29;;;;;;;2.88;1.20;;;6.50;99.90;;;;;;5040650;28;20048;-84
2024/01/02 07:21:55;;;;;;;4.45;1.30;;;6.50;99.90;;;;;;5066884;28;20053;-82
2024/01/02 07:24:21;;;;;;;2.95;1.15;;;6.50;99.90;;;;;;5067911;28;20036;-83
2024/01/02 07:26:46;;;;;;;3.92;1.10;;;6.60;99.90;;;;;;5061329;28;20041;-81
2024/01/02 07:29:12;;;;;;;3.47;1.10;;;6.60;99.90;;;;;;5060980;28;20067;-83
2024/01/02 07:31:37;;;;;;;2.05;1.00;;;6.60;99.90;;;;;;5059842;28;20063;-81
2024/01/02 07:34:05;;;;;;;3.63;0.95;;;6.60;99.90;;;;;;5060392;28;20447;-83
2024/01/02 07:36:31;;;;;;;1.80;1.00;;;6.60;99.90;;;;;;5063438;28;20045;-83
2024/01/02 07:38:56;;;;;;;2.35;1.10;;;6.60;99.90;;;;;;5062035;28;20040;-80
2024/01/02 07:41:22;;;;;;;2.17;1.15;;;6.60;99.90;;;;;;5059323;28;20047;-81
2024/01/02 07:43:48;;;;;;;3.28;1.30;;;6.70;99.90;;;;;;5065449;28;20048;-81
2024/01/02 07:46:15;;;;;;;2.10;1.00;;;6.70;99.90;;;;;;5073851;28;20487;-81
2024/01/02 07:48:41;;;;;;;3.15;1.45;;;6.70;99.90;;;;;;5068905;28;20372;-80
2024/01/02 07:51:07;;;;;;;2.08;1.00;;;6.70;99.90;;;;;;5052105;28;20048;-81
2024/01/02 07:53:33;;;;;;;3.67;1.40;;;6.70;99.90;;;;;;5053726;28;20099;-82
2024/01/02 07:56:01;;;;;;;4.22;1.40;;;6.70;99.90;;;;;;5053453;28;20123;-81
2024/01/02 07:58:27;;;;;;;3.15;1.50;;;7.20;99.90;;;;;;5055192;28;20136;-81
2024/01/02 08:00:53;;;;;;;4.55;1.55;;;7.00;99.90;;;;;;5067198;28;20119;-81
2024/01/02 08:03:18;;;;;;;3.53;1.50;;;6.80;99.90;;;;;;5057002;28;20123;-82
2024/01/02 08:05:44;;;;;;;3.45;1.38;;;6.90;99.90;;;;;;5059919;28;20041;-80
2024/01/02 08:08:09;;;;;;;3.67;1.70;;;6.90;99.90;;;;;;5053458;28;20549;-82
2024/01/02 08:10:35;;;;;;;3.70;1.92;;;7.10;99.90;;;;;;5065693;28;20083;-82
2024/01/02 08:13:01;;;;;;;4.93;2.63;;;7.00;99.90;;;;;;5060981;28;20400;-81
2024/01/02 08:15:26;;;;;;;4.03;1.77;;;7.00;99.90;;;;;;5053634;28;20053;-80
2024/01/02 08:17:52;;;;;;;4.90;2.38;;;7.10;99.90;;;;;;5055274;28;20110;-80
2024/01/02 08:20:18;;;;;;;6.05;3.42;;;7.20;99.90;;;;;;5056346;28;20481;-80
2024/01/02 08:22:44;;;;;;;6.63;2.88;;;7.10;99.90;;;;;;5059431;28;20040;-80
2024/01/02 08:25:09;;;;;;;5.35;2.40;;;7.20;99.90;;;;;;5053073;28;20404;-81
2024/01/02 08:27:35;;;;;;;5.15;2.78;;;7.40;99.90;;;;;;5052296;28;20408;-80
2024/01/02 08:30:03;;;;;;;7.10;3.80;;;7.30;99.90;;;;;;5051575;28;20366;-80
2024/01/02 08:32:29;;;;;;;6.80;3.33;;;7.30;99.90;;;;;;5051742;28;20112;-80
2024/01/02 08:34:54;;;;;;;7.97;3.60;;;7.40;99.90;;;;;;5052148;28;20052;-84
2024/01/02 08:37:20;;;;;;;7.70;3.90;;;7.40;99.90;;;;;;5061022;28;20040;-82
2024/01/02 08:39:45;;;;;;;14.13;4.50;;;7.80;99.90;;;;;;5058428;28;20037;-82
2024/01/02 08:42:11;;;;;;;11.30;4.38;;;7.70;99.90;;;;;;5068095;28;20044;-82
2024/01/02 08:44:37;;;;;;;13.88;4.53;;;7.60;99.90;;;;;;5059175;28;20504;-83
2024/01/02 08:47:03;;;;;;;12.63;5.15;;;7.60;99.90;;;;;;5059306;28;20080;-81
2024/01/02 08:49:29;;;;;;;13.65;4.50;;;7.60;99.90;;;;;;5052113;28;20447;-82
2024/01/02 08:51:55;;;;;;;33.45;6.30;;;7.80;99.90;;;;;;5036001;28;20136;-83
2024/01/02 08:54:20;;;;;;;22.63;6.25;;;7.80;99.90;;;;;;5042627;28;20041;-82
2024/01/02 08:56:46;;;;;;;22.40;6.28;;;7.90;99.90;;;;;;5069033;28;20044;-81
2024/01/02 08:59:11;;;;;;;20.83;6.68;;;7.90;99.90;;;;;;5055178;28;20056;-83
2024/01/02 09:01:38;;;;;;;25.27;8.48;;;8.00;99.90;;;;;;5051441;28;20044;-83
2024/01/02 09:04:04;;;;;;;43.80;10.98;;;8.10;99.90;;;;;;5059515;28;20043;-83
2024/01/02 09:06:30;;;;;;;26.60;8.88;;;8.20;99.90;;;;;;5050834;28;20045;-81
2024/01/02 09:08:58;;;;;;;37.67;10.65;;;8.30;99.90;;;;;;5050616;28;20041;-83
2024/01/02 09:11:24;;;;;;;42.75;11.48;;;8.40;99.90;;;;;;5049883;28;20045;-81
2024/01/02 09:13:50;;;;;;;36.92;10.90;;;8.50;99.90;;;;;;5050088;28;20048;-81
2024/01/02 09:16:16;;;;;;;51.03;12.18;;;8.60;99.90;;;;;;5049349;28;20397;-80
2024/01/02 09:18:42;;;;;;;37.25;11.23;;;8.60;99.90;;;;;;5049926;28;20044;-81
2024/01/02 09:21:07;;;;;;;38.53;11.07;;;8.60;99.90;;;;;;5067002;28;20090;-81
2024/01/02 09:23:36;;;;;;;39.78;9.68;;;8.70;99.90;;;;;;5064965;28;20124;-83
2024/01/02 09:26:04;;;;;;;46.08;8.32;;;9.10;99.90;;;;;;5052299;28;20056;-83
2024/01/02 09:28:31;;;;;;;36.92;8.85;;;8.90;99.90;;;;;;5054578;28;20052;-82
2024/01/02 09:30:56;;;;;;;28.20;8.18;;;9.20;99.90;;;;;;5061183;28;20494;-82
2024/01/02 09:33:25;;;;;;;34.70;8.65;;;8.90;99.90;;;;;;5070983;28;20139;-81
2024/01/02 09:35:51;;;;;;;27.95;7.30;;;9.00;99.90;;;;;;5072397;28;20048;-81
2024/01/02 09:38:16;;;;;;;37.83;7.43;;;9.00;99.90;;;;;;5064132;28;20048;-82
2024/01/02 09:41:12;;;;;;;35.25;7.30;;;9.10;99.90;;;;;;5036395;28;20041;-80
2024/01/02 09:44:02;;;;;;;30.17;6.85;;;9.10;99.90;;;;;;5052249;28;20090;-82
2024/01/02 09:46:39;;;;;;;30.40;7.68;;;9.10;99.90;;;;;;5059571;28;20041;-82
2024/01/02 09:49:26;;;;;;;20.70;6.38;;;9.20;99.90;;;;;;5056759;28;20049;-82
2024/01/02 09:52:37;;;;;;;33.55;7.75;;;9.10;99.90;;;;;;5063187;28;20095;-82
2024/01/02 09:55:33;;;;;;;32.63;10.55;;;9.20;99.90;;;;;;5051869;28;20044;-82
2024/01/02 09:58:07;;;;;;;39.67;11.30;;;9.20;99.90;;;;;;5034437;28;20527;-83
2024/01/02 10:01:09;;;;;;;40.47;10.70;;;9.20;99.90;;;;;;5061739;28;20095;-83
2024/01/02 10:03:46;;;;;;;34.03;8.15;;;9.30;99.90;;;;;;5060476;28;20052;-82
2024/01/02 10:06:37;;;;;;;27.10;7.78;;;9.30;99.90;;;;;;5062842;28;20040;-82
2024/01/02 10:09:34;;;;;;;30.55;7.47;;;9.30;99.90;;;;;;5073117;28;20104;-82
2024/01/02 10:12:20;;;;;;;27.63;6.13;;;9.40;99.90;;;;;;5069428;28;20041;-83
2024/01/02 10:14:46;;;;;;;29.27;6.63;;;9.40;99.90;;;;;;5073007;28;20048;-83
2024/01/02 10:17:43;;;;;;;27.50;5.57;;;9.40;99.90;;;;;;5068590;28;20044;-82
2024/01/02 10:20:23;;;;;;;35.05;6.13;;;9.50;99.90;;;;;;5057709;28;20102;-82
2024/01/02 10:22:58;;;;;;;33.30;7.05;;;9.50;99.90;;;;;;5075187;28;20048;-82
2024/01/02 10:25:24;;;;;;;28.00;5.38;;;9.50;99.90;;;;;;5057581;28;20139;-81
2024/01/02 10:28:02;;;;;;;23.05;5.40;;;9.50;99.90;;;;;;5064918;28;20041;-81
2024/01/02 10:30:35;;;;;;;23.70;5.97;;;9.50;99.90;;;;;;5064146;28;20036;-83
2024/01/02 10:33:19;;;;;;;24.27;4.70;;;9.60;99.90;;;;;;5055039;28;20504;-82
2024/01/02 10:35:52;;;;;;;25.40;4.18;;;9.60;99.90;;;;;;5056636;28;20056;-82
2024/01/02 10:38:26;;;;;;;22.38;5.00;;;9.60;99.90;;;;;;5057389;28;20055;-80
2024/01/02 10:41:21;;;;;;;27.95;4.80;;;9.70;99.90;;;;;;5049079;28;20052;-82
2024/01/02 10:43:50;;;;;;;23.48;5.38;;;9.70;99.90;;;;;;5057107;28;20049;-81
2024/01/02 10:46:41;;;;;;;30.20;4.35;;;9.70;99.90;;;;;;5055576;28;20095;-83
2024/01/02 10:49:49;;;;;;;22.80;3.97;;;9.70;99.90;;;;;;5067390;28;20447;-82
2024/01/02 10:52:30;;;;;;;22.05;3.70;;;9.80;99.90;;;;;;5072285;28;20049;-81
2024/01/02 10:55:22;;;;;;;21.00;3.97;;;9.80;99.90;;;;;;5067356;28;20037;-81
2024/01/02 10:58:15;;;;;;;17.40;3.42;;;9.80;99.90;;;;;;5057542;28;20531;-80
2024/01/02 11:01:03;;;;;;;23.40;3.83;;;9.90;99.90;;;;;;5063933;28;20048;-82
2024/01/02 11:03:34;;;;;;;24.35;3.65;;;9.90;99.90;;;;;;5066778;28;20048;-81
2024/01/02 11:05:59;;;;;;;21.92;3.00;;;9.90;99.90;;;;;;5062956;28;20129;-81
2024/01/02 11:08:41;;;;;;;19.65;2.97;;;10.10;99.90;;;;;;5070365;28;20120;-83
2024/01/02 11:11:09;;;;;;;16.90;2.50;;;10.00;99.90;;;;;;5061791;28;20052;-80
2024/01/02 11:13:39;;;;;;;19.08;3.53;;;10.00;99.90;;;;;;5069763;28;20098;-81
2024/01/02 11:16:20;;;;;;;21.23;3.15;;;10.00;99.90;;;;;;5055534;28;20053;-81
2024/01/02 11:18:54;;;;;;;16.17;3.33;;;10.10;99.90;;;;;;5053995;28;20045;-81
2024/01/02 11:21:38;;;;;;;20.45;3.15;;;10.10;99.90;;;;;;5064790;28;20420;-81
2024/01/02 11:24:06;;;;;;;16.08;2.55;;;10.10;99.90;;;;;;5073686;28;20039;-84
2024/01/02 11:26:44;;;;;;;19.20;3.53;;;10.20;99.90;;;;;;5057260;28;20041;-82
2024/01/02 11:29:18;;;;;;;16.70;3.25;;;10.20;99.90;;;;;;5072697;28;20101;-81
2024/01/02 11:31:46;;;;;;;16.83;2.85;;;10.30;99.90;;;;;;5057107;28;20060;-81
2024/01/02 11:34:20;;;;;;;18.58;2.78;;;10.30;99.90;;;;;;5053534;28;20084;-83
2024/01/02 11:36:46;;;;;;;20.63;2.78;;;10.30;99.90;;;;;;5052379;28;20440;-86
2024/01/02 11:39:46;;;;;;;21.65;3.88;;;10.30;99.90;;;;;;5036572;28;20140;-86
2024/01/02 11:42:29;;;;;;;20.90;3.22;;;10.30;99.90;;;;;;5053401;28;20041;-85
2024/01/02 11:45:11;;;;;;;21.75;2.55;;;10.30;99.90;;;;;;5067801;28;20174;-87
2024/01/02 11:47:45;;;;;;;21.23;3.13;;;10.30;99.90;;;;;;5073589;28;20056;-88
2024/01/02 11:50:17;;;;;;;24.30;4.63;;;10.30;99.90;;;;;;5066036;28;20097;-91
2024/01/02 11:53:02;;;;;;;16.58;3.47;;;10.30;99.90;;;;;;5055484;28;20049;-90
2024/01/02 11:55:34;;;;;;;20.50;4.93;;;10.30;99.90;;;;;;5039032;28;20500;-92
2024/01/02 11:58:16;;;;;;;29.05;3.35;;;10.30;99.90;;;;;;5054538;28;20095;-90
2024/01/02 12:00:55;;;;;;;20.52;4.68;;;10.40;99.90;;;;;;5074636;28;20064;-89
2024/01/02 12:03:32;;;;;;;17.40;3.65;;;10.70;99.90;;;;;;5074288;28;20036;-89
2024/01/02 12:06:12;;;;;;;19.30;3.38;;;10.30;99.90;;;;;;5069428;28;20426;-90
2024/01/02 12:08:45;;;;;;;26.13;4.70;;;10.30;99.90;;;;;;5055005;28;20084;-89
2024/01/02 12:11:13;;;;;;;28.23;4.43;;;10.60;99.90;;;;;;5054967;28;20040;-93
2024/01/02 12:14:03;;;;;;;22.30;5.40;;;10.60;99.90;;;;;;5057470;28;20059;-91
2024/01/02 12:16:35;;;;;;;28.38;4.13;;;10.40;99.90;;;;;;5053345;28;20041;-90
2024/01/02 12:19:06;;;;;;;24.35;4.78;;;10.40;99.90;;;;;;5065324;28;20052;-88
2024/01/02 12:21:34;;;;;;;21.20;3.67;;;10.40;99.90;;;;;;5073786;28;20071;-86
2024/01/02 12:24:02;;;;;;;23.77;4.35;;;10.30;99.90;;;;;;5060510;28;20049;-85
2024/01/02 12:26:34;;;;;;;16.52;3.92;;;10.50;99.90;;;;;;5060693;28;20049;-83
2024/01/02 12:29:01;;;;;;;22.23;3.65;;;10.40;99.90;;;;;;5055462;28;20580;-83
2024/01/02 12:31:39;;;;;;;26.45;4.50;;;10.40;99.90;;;;;;5067342;28;20107;-83
2024/01/02 12:34:28;;;;;;;26.65;5.93;;;10.30;99.90;;;;;;5062464;28;20055;-84
2024/01/02 12:37:12;;;;;;;17.92;4.65;;;10.30;99.90;;;;;;5070317;28;20048;-83
2024/01/02 12:39:39;;;;;;;37.72;12.25;;;10.40;99.90;;;;;;5056632;28;20053;-85
2024/01/02 12:42:08;;;;;;;29.80;8.38;;;10.50;99.90;;;;;;5049850;28;20060;-84
2024/01/02 12:44:35;;;;;;;32.40;7.55;;;10.30;99.90;;;;;;5050179;28;20102;-84
2024/01/02 12:47:12;;;;;;;28.98;5.40;;;10.30;99.90;;;;;;5051613;28;20115;-85
2024/01/02 12:49:47;;;;;;;23.58;6.95;;;10.40;99.90;;;;;;5061611;28;20053;-85
2024/01/02 12:52:20;;;;;;;30.52;6.50;;;10.20;99.90;;;;;;5051559;28;20386;-83
2024/01/02 12:54:54;;;;;;;29.50;6.13;;;10.20;99.90;;;;;;5049780;28;20131;-82
2024/01/02 12:57:20;;;;;;;34.28;6.20;;;10.20;99.90;;;;;;5055826;28;20459;-84